AirNav   Air Wisconsin pilot careers
 
 992 users online  

96G Cowley Field Airport
Sandusky, Michigan, USA


FAA INFORMATION EFFECTIVE 01 FEBRUARY 2018

Location

FAA Identifier: 96G
Lat/Long: 43-22-32.6000N / 082-49-07.8000W
43-22.543333N / 082-49.130000W
43.3757222 / -82.8188333
(estimated)
Elevation: 770 ft. / 235 m (estimated)
Variation: 07W (1985)
From city: 3 miles S of SANDUSKY, MI
Time zone: UTC -5 (UTC -4 during Daylight Saving Time)
Zip code: 48471

Airport Operations

Airport use: Open to the public
Activation date: 04/1971
Control tower: no
ARTCC: CLEVELAND CENTER
FSS: LANSING FLIGHT SERVICE STATION
NOTAMs facility: LAN (NOTAM-D service available)
Attendance: IREG
SNOW REMOVAL IREG; VERIFY COND - CALL 810-648-2352.
Wind indicator: yes
Segmented circle: no

Airport Communications

CTAF: 122.9

Airport Services

Parking: tiedowns
Airframe service: NONE
Powerplant service: NONE
Bottled oxygen: NONE
Bulk oxygen: NONE

Runway Information

Runway 9/27

Dimensions: 2600 x 60 ft. / 792 x 18 m
Surface: turf, in good condition
Runway edge markings: RY MARKED WITH CONES.
RUNWAY 9  RUNWAY 27
Latitude: 43-22.536667N43-22.550000N
Longitude: 082-49.423333W082-48.836667W
Elevation: 770.0 ft.768.0 ft.
Traffic pattern: leftleft
Runway heading: 095 magnetic, 088 true275 magnetic, 268 true
Runway end identifier lights: nono
Obstructions: 53 ft. tree, 1089 ft. from runway, 20:1 slope to clear150 ft. pline, 5500 ft. from runway, 36:1 slope to clear

Airport Ownership and Management from official FAA records

Ownership: Privately-owned
Owner: DALE COWLEY
1515 SO SANDUSKY RD
SANDUSKY, MI 48471
Phone 810-648-2352
Manager: DALE COWLEY
1515 SO SANDUSKY RD
SANDUSKY, MI 48471
Phone 810-648-2352
AMGR LIVES AT ARPT.

Airport Operational Statistics

Aircraft based on the field: 1
Single engine airplanes: 1
    
Aircraft operations: 60/year *
83% transient general aviation
17% local general aviation
* for 12-month period ending 31 December 2015

Additional Remarks

DEER & TURKEYS ON & INVOF ARPT.
BE ALERT FOR CLOSE PROXIMITY OF POWER POLES ALONG TWY ON W END.

Instrument Procedures

There are no published instrument procedures at 96G.

Some nearby airports with instrument procedures:

77G - Marlette Airport (12 nm W)
KBAX - Huron County Memorial Airport (25 nm N)
D95 - Dupont-Lapeer Airport (27 nm SW)
KCFS - Tuscola Area Airport (28 nm W)
KPHN - St Clair County International Airport (31 nm SE)
 
Loc | Ops | Rwys | IFR | FBO | Links
Com | Nav | Svcs | Stats | Notes

AirNav Hotels Sweepstakes
 
Area around 96G (Cowley Field Airport)
 
Road maps at: MapQuest Bing Google
 
Aerial photo
WARNING: Photo may not be current or correct
Aerial photo of 96G (Cowley Field Airport)
Photo by Roy Carlson, Plainwell, MI

Do you have a better or more recent aerial photo of Cowley Field Airport that you would like to share? If so, please send us your photo.

 
Sectional chart

 
Airport distance calculator
Flying to Cowley Field Airport? Find the distance to fly.

From to 96G

Sunrise and sunset
Times for 18-Feb-2018
 Local
(UTC-5)
 Zulu
(UTC)
Morning civil twilight06:5711:57
Sunrise07:2612:26
Sunset18:0423:04
Evening civil twilight18:3423:34

Current date and time
Zulu (UTC)  18-Feb-2018 22:38:39
Local (UTC-5)  18-Feb-2018 17:38:39
 
METAR
KBAX 
25nm N 
182215Z AUTO 17008KT 10SM CLR 01/M04 A3022 RMK AO2 T00111041
KD95 
27nm SW 
182215Z AUTO 20010KT 10SM CLR 02/M05 A3023 RMK AO2 T00211048
KCFS 
28nm W 
182215Z AUTO 17011G14KT 10SM CLR 04/M05 A3019 RMK AO2 T00391052
KPHN 
31nm SE 
182215Z AUTO 18008G16KT 10SM CLR 00/M05 A3027 RMK AO2
CYZR 
32nm SE 
182200Z AUTO 18012G20KT 9SM CLR 01/M03 A3027 RMK SLP259
KP58 
38nm N 
182151Z AUTO 17010KT 01/M06 A3021 RMK AO1 SLP239 T00111056
KMTC 
46nm S 
182156Z 16013KT 10SM FEW150 OVC200 01/M01 A3025 RMK AO2A SLP255 T00051011
KHYX 
46nm W 
182215Z AUTO 18008KT 10SM CLR 03/M03 A3019 RMK AO2
KFNT 
48nm SW 
182153Z 17008KT 10SM CLR 02/M05 A3022 RMK AO2 SLP241 T00221050
KPTK 
50nm SW 
182153Z 16012KT 10SM OVC200 01/M04 A3021 RMK AO2 SLP240 T00061044
TAF
CYZR 
32nm SE 
181938Z 1820/1903 18012G22KT P6SM FEW020 BKN150 TEMPO 1820/1903 BKN020 RMK FCST BASED ON AUTO OBS. NXT FCST WILL BE ISSUED AT 190845Z
NOTAMs
Click for the latest NOTAMs
NOTAMs are issued by the DoD/FAA and will open in a separate window not controlled by AirNav.

 

 
 

Would you like to see your business listed on this page?

 If your business provides an interesting product or service to pilots, flight crews, aircraft, or users of the Cowley Field Airport, you should consider listing it here.  To start the listing process, click on the button below
 
Add a business
 

Other Pages about Cowley Field Airport

Page from the Michigan Airport Directory (PDF)
 
Update a link
 
Copyright © AirNav, LLC. All rights reserved. Privacy Policy  Contact